Time;durP1;ratioP1;P1;durP2;ratioP2;P2;SDS_P1;SDS_P2;PMS_P1;PMS_P2;Temp;Humidity;BMP_temperature;BMP_pressure;BME280_temperature;BME280_humidity;BME280_pressure;Samples;Min_cycle;Max_cycle;Signal;HPM_P1;HPM_P2
2022/04/25 07:08:58;;;;;;;3.88;2.22;;;;;;;;;;12860745;22;802085;-79
2022/04/25 07:13:59;;;;;;;4.10;2.85;;;;;;;;;;12873245;23;20056;-79
2022/04/25 07:19:03;;;;;;;3.47;2.60;;;;;;;;;;12871654;23;20099;-79
2022/04/25 07:29:25;;;;;;;3.53;2.33;;;;;;;;;;12873250;23;20009;-79
2022/04/25 07:34:26;;;;;;;5.32;4.40;;;;;;;;;;12871018;23;20019;-80
2022/04/25 07:39:27;;;;;;;3.45;2.70;;;;;;;;;;12871116;23;20028;-79
2022/04/25 07:44:28;;;;;;;10.75;9.57;;;;;;;;;;12869960;23;20008;-80
2022/04/25 07:49:30;;;;;;;3.85;2.85;;;;;;;;;;12869414;23;20001;-79
2022/04/25 07:54:36;;;;;;;4.30;3.47;;;;;;;;;;12868716;23;20004;-79
2022/04/25 07:59:37;;;;;;;4.93;4.05;;;;;;;;;;12870016;23;20008;-79
2022/04/25 08:04:38;;;;;;;5.90;5.30;;;;;;;;;;12870928;23;20000;-79
2022/04/25 08:09:39;;;;;;;4.70;3.58;;;;;;;;;;12867529;23;20009;-79
2022/04/25 08:20:00;;;;;;;4.80;3.33;;;;;;;;;;12867712;23;20021;-79
2022/04/25 08:25:02;;;;;;;5.90;5.28;;;;;;;;;;12866038;23;20340;-78
2022/04/25 08:30:03;;;;;;;8.70;5.60;;;;;;;;;;12867517;23;20004;-78
2022/04/25 08:35:08;;;;;;;4.28;3.67;;;;;;;;;;12864720;23;20099;-78
2022/04/25 08:40:10;;;;;;;3.97;3.45;;;;;;;;;;12863793;23;20084;-80
2022/04/25 08:45:11;;;;;;;6.28;5.13;;;;;;;;;;12864257;23;20005;-78
2022/04/25 08:50:12;;;;;;;4.30;2.85;;;;;;;;;;12863737;23;20062;-78
2022/04/25 08:55:14;;;;;;;3.75;2.70;;;;;;;;;;12861047;23;20005;-77
2022/04/25 09:00:16;;;;;;;4.65;2.75;;;;;;;;;;12862175;23;20011;-77
2022/04/25 09:05:17;;;;;;;3.95;3.22;;;;;;;;;;12858862;23;20012;-77
2022/04/25 09:10:26;;;;;;;6.32;3.72;;;;;;;;;;12866061;23;20013;-79
2022/04/25 09:15:50;;;;;;;6.07;3.92;;;;;;;;;;12860778;23;20022;-79
2022/04/25 09:20:58;;;;;;;6.80;4.45;;;;;;;;;;12869891;23;20004;-79
2022/04/25 09:26:16;;;;;;;6.90;4.03;;;;;;;;;;12844709;23;20013;-80
2022/04/25 09:36:59;;;;;;;7.30;4.38;;;;;;;;;;12865166;23;20005;-79
2022/04/25 09:42:01;;;;;;;7.30;4.75;;;;;;;;;;12869231;23;20031;-78
2022/04/25 09:47:03;;;;;;;9.18;7.05;;;;;;;;;;12871634;23;20012;-80
2022/04/25 09:52:16;;;;;;;9.50;6.43;;;;;;;;;;12875665;23;20031;-79
2022/04/25 09:57:38;;;;;;;7.10;5.53;;;;;;;;;;12867854;23;20004;-80
2022/04/25 10:02:41;;;;;;;8.25;5.38;;;;;;;;;;12869158;23;20071;-80
2022/04/25 10:07:44;;;;;;;12.73;7.28;;;;;;;;;;12867367;23;20096;-80
2022/04/25 10:12:50;;;;;;;5.70;4.82;;;;;;;;;;12872142;23;20017;-81
2022/04/25 10:17:52;;;;;;;6.18;5.13;;;;;;;;;;12870857;23;20011;-80
2022/04/25 10:22:54;;;;;;;8.13;5.90;;;;;;;;;;12869259;23;20046;-79
2022/04/25 10:27:57;;;;;;;8.20;6.68;;;;;;;;;;12867961;23;20053;-80
2022/04/25 10:33:23;;;;;;;6.30;5.68;;;;;;;;;;12871392;23;20023;-79
2022/04/25 10:38:52;;;;;;;6.95;5.97;;;;;;;;;;12869107;23;20100;-81
2022/04/25 10:44:12;;;;;;;12.88;10.10;;;;;;;;;;12869816;23;20340;-80
2022/04/25 10:49:48;;;;;;;13.63;10.77;;;;;;;;;;12874235;23;20028;-80
2022/04/25 10:54:51;;;;;;;8.43;6.93;;;;;;;;;;12873210;23;20532;-84
2022/04/25 10:59:52;;;;;;;8.85;7.15;;;;;;;;;;12874327;23;20096;-81
2022/04/25 11:05:12;;;;;;;5.45;3.50;;;;;;;;;;12848472;23;20012;-79
2022/04/25 11:10:32;;;;;;;5.25;4.55;;;;;;;;;;12869724;23;20005;-78
2022/04/25 11:15:49;;;;;;;14.02;6.55;;;;;;;;;;12871586;23;20088;-79
2022/04/25 11:21:02;;;;;;;10.80;8.50;;;;;;;;;;12872992;23;20027;-78
2022/04/25 11:26:04;;;;;;;6.90;6.07;;;;;;;;;;12869663;23;20433;-78
2022/04/25 11:31:14;;;;;;;7.25;5.80;;;;;;;;;;12868726;23;20035;-80
2022/04/25 11:36:16;;;;;;;9.82;8.38;;;;;;;;;;12870207;23;20001;-80
2022/04/25 11:41:23;;;;;;;7.85;6.38;;;;;;;;;;12872825;23;20441;-82
2022/04/25 11:46:47;;;;;;;8.10;6.47;;;;;;;;;;12864297;23;20032;-84
2022/04/25 11:52:51;;;;;;;11.68;10.48;;;;;;;;;;12875403;23;20009;-82
2022/04/25 11:57:52;;;;;;;13.32;11.93;;;;;;;;;;12872500;22;20017;-82
2022/04/25 12:02:54;;;;;;;8.48;7.57;;;;;;;;;;12905327;23;20012;-79
2022/04/25 12:18:35;;;;;;;9.45;7.88;;;;;;;;;;12912764;23;20212;-81
2022/04/25 12:23:43;;;;;;;9.10;7.82;;;;;;;;;;12892560;23;20361;-82
2022/04/25 12:28:55;;;;;;;8.70;7.88;;;;;;;;;;12876705;23;20008;-80
2022/04/25 12:34:04;;;;;;;8.70;7.35;;;;;;;;;;12875253;23;20004;-80
2022/04/25 12:39:10;;;;;;;12.95;10.30;;;;;;;;;;12876382;23;20040;-81
2022/04/25 12:44:11;;;;;;;7.68;6.90;;;;;;;;;;12874279;23;20344;-81
2022/04/25 12:49:31;;;;;;;7.72;6.90;;;;;;;;;;12877982;23;20005;-80
2022/04/25 12:54:37;;;;;;;7.82;7.03;;;;;;;;;;12871645;23;20068;-80
2022/04/25 12:59:39;;;;;;;9.25;7.80;;;;;;;;;;12878325;23;20405;-81
2022/04/25 13:05:00;;;;;;;12.48;9.05;;;;;;;;;;12877819;23;20015;-84
2022/04/25 13:10:24;;;;;;;10.90;9.57;;;;;;;;;;12886783;23;20024;-83
2022/04/25 13:21:05;;;;;;;11.93;10.40;;;;;;;;;;12882645;23;19993;-82
2022/04/25 13:26:06;;;;;;;12.25;10.05;;;;;;;;;;12862048;23;20014;-82
2022/04/25 13:31:37;;;;;;;;;;;;;;;;;;;;;
2022/04/25 13:37:08;;;;;;;9.88;8.77;;;;;;;;;;12832069;23;20005;-82
2022/04/25 13:42:09;;;;;;;13.20;11.70;;;;;;;;;;12883166;23;20028;-82
2022/04/25 13:47:50;;;;;;;;;;;;;;;;;;;;;
2022/04/25 13:52:54;;;;;;;11.63;10.43;;;;;;;;;;12886064;23;20064;-81
2022/04/25 13:57:56;;;;;;;9.70;8.40;;;;;;;;;;12883916;23;20035;-82
2022/04/25 14:03:06;;;;;;;9.95;8.32;;;;;;;;;;12885428;23;20004;-82
2022/04/25 14:08:10;;;;;;;8.10;7.10;;;;;;;;;;12879650;23;20391;-82
2022/04/25 14:13:12;;;;;;;10.88;9.73;;;;;;;;;;12878544;23;20016;-82
2022/04/25 14:18:13;;;;;;;6.80;6.13;;;;;;;;;;12879256;23;20084;-82
2022/04/25 14:23:14;;;;;;;8.40;6.13;;;;;;;;;;12884862;23;20005;-82
2022/04/25 14:28:16;;;;;;;6.60;5.00;;;;;;;;;;12864241;23;20437;-83
2022/04/25 14:33:17;;;;;;;7.18;5.75;;;;;;;;;;12886776;23;20005;-83
2022/04/25 14:38:22;;;;;;;7.53;6.35;;;;;;;;;;12887978;23;19997;-83
2022/04/25 14:43:24;;;;;;;6.25;5.03;;;;;;;;;;12885311;23;20000;-83
2022/04/25 14:48:38;;;;;;;5.55;4.88;;;;;;;;;;12889058;23;20008;-82
2022/04/25 14:59:01;;;;;;;5.10;4.60;;;;;;;;;;12878356;23;20392;-81
2022/04/25 15:04:03;;;;;;;5.88;3.72;;;;;;;;;;12876628;23;20286;-81
2022/04/25 15:09:26;;;;;;;5.30;4.22;;;;;;;;;;12876762;23;20015;-80
2022/04/25 15:14:29;;;;;;;8.38;7.50;;;;;;;;;;12881966;23;20463;-81
2022/04/25 15:47:42;;;;;;;11.35;10.25;;;;;;;;;;12879039;22;20436;-81
2022/04/25 15:58:46;;;;;;;4.60;4.15;;;;;;;;;;12689428;23;19998;-80
